sensor_id;sensor_type;location;lat;lon;timestamp;P1;durP1;ratioP1;P2;durP2;ratioP2
18102;SDS011;9178;51.120;6.192;2024-03-08T00:00:33;20.37;;;13.33;;
18102;SDS011;9178;51.120;6.192;2024-03-08T00:03:00;18.43;;;13.23;;
18102;SDS011;9178;51.120;6.192;2024-03-08T00:05:27;18.43;;;13.53;;
18102;SDS011;9178;51.120;6.192;2024-03-08T00:07:57;20.67;;;14.47;;
18102;SDS011;9178;51.120;6.192;2024-03-08T00:10:25;21.07;;;13.90;;
18102;SDS011;9178;51.120;6.192;2024-03-08T00:12:55;18.67;;;13.17;;
18102;SDS011;9178;51.120;6.192;2024-03-08T00:15:25;18.07;;;13.47;;
18102;SDS011;9178;51.120;6.192;2024-03-08T00:17:54;18.63;;;13.30;;
18102;SDS011;9178;51.120;6.192;2024-03-08T00:20:22;20.87;;;14.10;;
18102;SDS011;9178;51.120;6.192;2024-03-08T00:22:49;20.33;;;14.03;;
18102;SDS011;9178;51.120;6.192;2024-03-08T00:25:16;22.13;;;14.60;;
18102;SDS011;9178;51.120;6.192;2024-03-08T00:27:44;19.50;;;13.43;;
18102;SDS011;9178;51.120;6.192;2024-03-08T00:30:17;20.83;;;13.63;;
18102;SDS011;9178;51.120;6.192;2024-03-08T00:32:44;20.57;;;14.70;;
18102;SDS011;9178;51.120;6.192;2024-03-08T00:35:11;18.67;;;13.53;;
18102;SDS011;9178;51.120;6.192;2024-03-08T00:37:46;20.13;;;13.87;;
18102;SDS011;9178;51.120;6.192;2024-03-08T00:40:16;18.40;;;13.47;;
18102;SDS011;9178;51.120;6.192;2024-03-08T00:42:45;19.23;;;13.97;;
18102;SDS011;9178;51.120;6.192;2024-03-08T00:45:12;19.40;;;13.97;;
18102;SDS011;9178;51.120;6.192;2024-03-08T00:47:41;20.73;;;14.63;;
18102;SDS011;9178;51.120;6.192;2024-03-08T00:50:09;21.67;;;14.30;;
18102;SDS011;9178;51.120;6.192;2024-03-08T00:52:39;22.97;;;14.67;;
18102;SDS011;9178;51.120;6.192;2024-03-08T00:55:10;20.43;;;14.50;;
18102;SDS011;9178;51.120;6.192;2024-03-08T00:57:38;18.60;;;13.93;;
18102;SDS011;9178;51.120;6.192;2024-03-08T01:00:08;19.57;;;13.90;;
18102;SDS011;9178;51.120;6.192;2024-03-08T01:02:38;21.00;;;14.60;;
18102;SDS011;9178;51.120;6.192;2024-03-08T01:05:24;20.37;;;13.63;;
18102;SDS011;9178;51.120;6.192;2024-03-08T01:07:58;19.67;;;13.77;;
18102;SDS011;9178;51.120;6.192;2024-03-08T01:10:26;20.37;;;13.50;;
18102;SDS011;9178;51.120;6.192;2024-03-08T01:12:53;19.47;;;13.20;;
18102;SDS011;9178;51.120;6.192;2024-03-08T01:15:24;20.23;;;14.53;;
18102;SDS011;9178;51.120;6.192;2024-03-08T01:17:54;21.17;;;14.27;;
18102;SDS011;9178;51.120;6.192;2024-03-08T01:20:23;20.03;;;14.10;;
18102;SDS011;9178;51.120;6.192;2024-03-08T01:22:51;20.53;;;14.50;;
18102;SDS011;9178;51.120;6.192;2024-03-08T01:25:22;20.17;;;14.27;;
18102;SDS011;9178;51.120;6.192;2024-03-08T01:27:49;21.40;;;14.27;;
18102;SDS011;9178;51.120;6.192;2024-03-08T01:30:20;20.00;;;13.57;;
18102;SDS011;9178;51.120;6.192;2024-03-08T01:32:49;18.27;;;13.67;;
18102;SDS011;9178;51.120;6.192;2024-03-08T01:35:16;20.67;;;14.70;;
18102;SDS011;9178;51.120;6.192;2024-03-08T01:37:45;26.07;;;14.97;;
18102;SDS011;9178;51.120;6.192;2024-03-08T01:40:13;20.07;;;13.60;;
18102;SDS011;9178;51.120;6.192;2024-03-08T01:42:40;21.50;;;14.63;;
18102;SDS011;9178;51.120;6.192;2024-03-08T01:45:08;21.20;;;14.57;;
18102;SDS011;9178;51.120;6.192;2024-03-08T01:47:36;20.83;;;13.67;;
18102;SDS011;9178;51.120;6.192;2024-03-08T01:50:13;22.73;;;14.70;;
18102;SDS011;9178;51.120;6.192;2024-03-08T01:52:45;24.77;;;14.97;;
18102;SDS011;9178;51.120;6.192;2024-03-08T01:55:18;18.83;;;13.30;;
18102;SDS011;9178;51.120;6.192;2024-03-08T01:57:46;19.23;;;14.93;;
18102;SDS011;9178;51.120;6.192;2024-03-08T02:00:17;20.43;;;14.20;;
18102;SDS011;9178;51.120;6.192;2024-03-08T02:02:46;24.23;;;14.20;;
18102;SDS011;9178;51.120;6.192;2024-03-08T02:05:15;23.37;;;14.63;;
18102;SDS011;9178;51.120;6.192;2024-03-08T02:07:53;20.53;;;14.20;;
18102;SDS011;9178;51.120;6.192;2024-03-08T02:10:21;19.93;;;14.37;;
18102;SDS011;9178;51.120;6.192;2024-03-08T02:12:50;19.80;;;14.00;;
18102;SDS011;9178;51.120;6.192;2024-03-08T02:15:19;21.80;;;14.83;;
18102;SDS011;9178;51.120;6.192;2024-03-08T02:17:47;23.40;;;15.03;;
18102;SDS011;9178;51.120;6.192;2024-03-08T02:20:18;20.27;;;14.37;;
18102;SDS011;9178;51.120;6.192;2024-03-08T02:22:47;23.87;;;15.17;;
18102;SDS011;9178;51.120;6.192;2024-03-08T02:25:19;22.20;;;14.87;;
18102;SDS011;9178;51.120;6.192;2024-03-08T02:27:46;23.80;;;15.23;;
18102;SDS011;9178;51.120;6.192;2024-03-08T02:30:16;20.47;;;14.57;;
18102;SDS011;9178;51.120;6.192;2024-03-08T02:32:46;24.13;;;15.33;;
18102;SDS011;9178;51.120;6.192;2024-03-08T02:35:19;20.67;;;14.33;;
18102;SDS011;9178;51.120;6.192;2024-03-08T02:37:57;22.10;;;14.47;;
18102;SDS011;9178;51.120;6.192;2024-03-08T02:40:29;24.97;;;15.70;;
18102;SDS011;9178;51.120;6.192;2024-03-08T02:43:06;23.60;;;14.80;;
18102;SDS011;9178;51.120;6.192;2024-03-08T02:45:45;25.07;;;16.07;;
18102;SDS011;9178;51.120;6.192;2024-03-08T02:48:13;22.70;;;15.27;;
18102;SDS011;9178;51.120;6.192;2024-03-08T02:50:41;21.93;;;14.13;;
18102;SDS011;9178;51.120;6.192;2024-03-08T02:53:11;23.83;;;15.47;;
18102;SDS011;9178;51.120;6.192;2024-03-08T02:55:39;22.67;;;15.70;;
18102;SDS011;9178;51.120;6.192;2024-03-08T02:58:07;24.00;;;15.07;;
18102;SDS011;9178;51.120;6.192;2024-03-08T03:00:35;24.17;;;16.90;;
18102;SDS011;9178;51.120;6.192;2024-03-08T03:03:05;25.73;;;15.97;;
18102;SDS011;9178;51.120;6.192;2024-03-08T03:05:33;26.97;;;16.37;;
18102;SDS011;9178;51.120;6.192;2024-03-08T03:08:00;23.40;;;15.00;;
18102;SDS011;9178;51.120;6.192;2024-03-08T03:10:30;23.63;;;15.97;;
18102;SDS011;9178;51.120;6.192;2024-03-08T03:12:58;26.13;;;15.53;;
18102;SDS011;9178;51.120;6.192;2024-03-08T03:15:25;23.93;;;15.73;;
18102;SDS011;9178;51.120;6.192;2024-03-08T03:17:52;23.77;;;15.57;;
18102;SDS011;9178;51.120;6.192;2024-03-08T03:20:20;22.63;;;14.93;;
18102;SDS011;9178;51.120;6.192;2024-03-08T03:22:51;22.57;;;15.13;;
18102;SDS011;9178;51.120;6.192;2024-03-08T03:25:19;24.43;;;15.57;;
18102;SDS011;9178;51.120;6.192;2024-03-08T03:27:52;23.20;;;14.77;;
18102;SDS011;9178;51.120;6.192;2024-03-08T03:30:21;25.20;;;15.93;;
18102;SDS011;9178;51.120;6.192;2024-03-08T03:32:51;24.07;;;15.43;;
18102;SDS011;9178;51.120;6.192;2024-03-08T03:35:20;25.03;;;15.97;;
18102;SDS011;9178;51.120;6.192;2024-03-08T03:37:52;23.97;;;15.77;;
18102;SDS011;9178;51.120;6.192;2024-03-08T03:40:31;20.97;;;14.83;;
18102;SDS011;9178;51.120;6.192;2024-03-08T03:43:00;24.23;;;15.73;;
18102;SDS011;9178;51.120;6.192;2024-03-08T03:45:28;25.30;;;16.03;;
18102;SDS011;9178;51.120;6.192;2024-03-08T03:47:58;25.10;;;16.20;;
18102;SDS011;9178;51.120;6.192;2024-03-08T03:50:26;24.80;;;15.83;;
18102;SDS011;9178;51.120;6.192;2024-03-08T03:52:53;24.50;;;15.47;;
18102;SDS011;9178;51.120;6.192;2024-03-08T03:55:20;22.27;;;14.70;;
18102;SDS011;9178;51.120;6.192;2024-03-08T03:57:48;24.23;;;16.30;;
18102;SDS011;9178;51.120;6.192;2024-03-08T04:00:16;25.03;;;16.07;;
18102;SDS011;9178;51.120;6.192;2024-03-08T04:02:44;28.33;;;16.47;;
18102;SDS011;9178;51.120;6.192;2024-03-08T04:05:12;22.77;;;14.97;;
18102;SDS011;9178;51.120;6.192;2024-03-08T04:07:39;25.40;;;16.17;;
18102;SDS011;9178;51.120;6.192;2024-03-08T04:10:06;24.80;;;15.97;;
18102;SDS011;9178;51.120;6.192;2024-03-08T04:12:36;24.57;;;15.83;;
18102;SDS011;9178;51.120;6.192;2024-03-08T04:15:04;25.77;;;16.87;;
18102;SDS011;9178;51.120;6.192;2024-03-08T04:17:33;21.43;;;15.73;;
18102;SDS011;9178;51.120;6.192;2024-03-08T04:20:02;24.10;;;15.97;;
18102;SDS011;9178;51.120;6.192;2024-03-08T04:22:34;24.93;;;15.97;;
18102;SDS011;9178;51.120;6.192;2024-03-08T04:25:02;24.50;;;15.53;;
18102;SDS011;9178;51.120;6.192;2024-03-08T04:27:32;27.13;;;16.73;;
18102;SDS011;9178;51.120;6.192;2024-03-08T04:29:59;24.90;;;16.27;;
18102;SDS011;9178;51.120;6.192;2024-03-08T04:32:26;25.37;;;15.27;;
18102;SDS011;9178;51.120;6.192;2024-03-08T04:34:56;27.10;;;16.40;;
18102;SDS011;9178;51.120;6.192;2024-03-08T04:37:23;23.67;;;15.67;;
18102;SDS011;9178;51.120;6.192;2024-03-08T04:39:50;24.17;;;15.50;;
18102;SDS011;9178;51.120;6.192;2024-03-08T04:42:18;23.03;;;14.93;;
18102;SDS011;9178;51.120;6.192;2024-03-08T04:44:45;29.03;;;16.70;;
18102;SDS011;9178;51.120;6.192;2024-03-08T04:47:12;25.90;;;15.27;;
18102;SDS011;9178;51.120;6.192;2024-03-08T04:49:39;29.07;;;17.00;;
18102;SDS011;9178;51.120;6.192;2024-03-08T04:52:08;26.13;;;16.10;;
18102;SDS011;9178;51.120;6.192;2024-03-08T04:54:35;28.43;;;16.67;;
18102;SDS011;9178;51.120;6.192;2024-03-08T04:57:02;24.67;;;15.80;;
18102;SDS011;9178;51.120;6.192;2024-03-08T04:59:30;25.03;;;16.17;;
18102;SDS011;9178;51.120;6.192;2024-03-08T05:01:57;25.23;;;16.20;;
18102;SDS011;9178;51.120;6.192;2024-03-08T05:04:24;26.77;;;17.23;;
18102;SDS011;9178;51.120;6.192;2024-03-08T05:06:51;27.63;;;16.57;;
18102;SDS011;9178;51.120;6.192;2024-03-08T05:09:20;30.17;;;16.10;;
18102;SDS011;9178;51.120;6.192;2024-03-08T05:11:48;24.23;;;16.03;;
18102;SDS011;9178;51.120;6.192;2024-03-08T05:14:16;27.17;;;16.40;;
18102;SDS011;9178;51.120;6.192;2024-03-08T05:16:45;26.70;;;15.97;;
18102;SDS011;9178;51.120;6.192;2024-03-08T05:19:13;25.13;;;15.77;;
18102;SDS011;9178;51.120;6.192;2024-03-08T05:21:43;26.83;;;16.70;;
18102;SDS011;9178;51.120;6.192;2024-03-08T05:24:10;27.07;;;16.20;;
18102;SDS011;9178;51.120;6.192;2024-03-08T05:26:39;27.23;;;15.43;;
18102;SDS011;9178;51.120;6.192;2024-03-08T05:29:07;25.30;;;15.40;;
18102;SDS011;9178;51.120;6.192;2024-03-08T05:31:38;25.53;;;15.90;;
18102;SDS011;9178;51.120;6.192;2024-03-08T05:34:17;26.80;;;16.90;;
18102;SDS011;9178;51.120;6.192;2024-03-08T05:36:47;28.90;;;16.10;;
18102;SDS011;9178;51.120;6.192;2024-03-08T05:39:16;24.07;;;15.47;;
18102;SDS011;9178;51.120;6.192;2024-03-08T05:41:45;26.70;;;16.40;;
18102;SDS011;9178;51.120;6.192;2024-03-08T05:44:12;26.67;;;16.60;;
18102;SDS011;9178;51.120;6.192;2024-03-08T05:46:42;26.73;;;15.70;;
18102;SDS011;9178;51.120;6.192;2024-03-08T05:49:09;31.63;;;17.33;;
18102;SDS011;9178;51.120;6.192;2024-03-08T05:51:37;28.47;;;16.37;;
18102;SDS011;9178;51.120;6.192;2024-03-08T05:54:05;26.37;;;17.33;;
18102;SDS011;9178;51.120;6.192;2024-03-08T05:56:35;27.47;;;16.53;;
18102;SDS011;9178;51.120;6.192;2024-03-08T05:59:04;30.97;;;17.10;;
18102;SDS011;9178;51.120;6.192;2024-03-08T06:01:31;25.43;;;16.10;;
18102;SDS011;9178;51.120;6.192;2024-03-08T06:04:01;26.47;;;15.67;;
18102;SDS011;9178;51.120;6.192;2024-03-08T06:06:29;27.17;;;16.10;;
18102;SDS011;9178;51.120;6.192;2024-03-08T06:08:56;26.80;;;16.87;;
18102;SDS011;9178;51.120;6.192;2024-03-08T06:11:24;26.70;;;16.53;;
18102;SDS011;9178;51.120;6.192;2024-03-08T06:13:53;26.27;;;16.83;;
18102;SDS011;9178;51.120;6.192;2024-03-08T06:16:26;24.10;;;16.67;;
18102;SDS011;9178;51.120;6.192;2024-03-08T06:18:54;26.43;;;16.77;;
18102;SDS011;9178;51.120;6.192;2024-03-08T06:21:26;27.03;;;16.03;;
18102;SDS011;9178;51.120;6.192;2024-03-08T06:23:54;26.47;;;16.13;;
18102;SDS011;9178;51.120;6.192;2024-03-08T06:26:22;27.33;;;15.90;;
18102;SDS011;9178;51.120;6.192;2024-03-08T06:28:53;27.60;;;16.70;;
18102;SDS011;9178;51.120;6.192;2024-03-08T06:31:21;25.20;;;16.00;;
18102;SDS011;9178;51.120;6.192;2024-03-08T06:33:50;27.50;;;16.37;;
18102;SDS011;9178;51.120;6.192;2024-03-08T06:36:19;27.80;;;16.20;;
18102;SDS011;9178;51.120;6.192;2024-03-08T06:38:46;25.37;;;15.37;;
18102;SDS011;9178;51.120;6.192;2024-03-08T06:41:16;29.47;;;16.47;;
18102;SDS011;9178;51.120;6.192;2024-03-08T06:43:44;23.83;;;15.57;;
18102;SDS011;9178;51.120;6.192;2024-03-08T06:46:14;24.10;;;15.50;;
18102;SDS011;9178;51.120;6.192;2024-03-08T06:48:41;28.77;;;16.33;;
18102;SDS011;9178;51.120;6.192;2024-03-08T06:51:11;27.20;;;16.60;;
18102;SDS011;9178;51.120;6.192;2024-03-08T06:53:42;24.00;;;15.77;;
18102;SDS011;9178;51.120;6.192;2024-03-08T06:56:11;24.73;;;16.43;;
18102;SDS011;9178;51.120;6.192;2024-03-08T06:58:38;28.10;;;16.70;;
18102;SDS011;9178;51.120;6.192;2024-03-08T07:01:05;24.50;;;15.40;;
18102;SDS011;9178;51.120;6.192;2024-03-08T07:03:39;26.60;;;15.50;;
18102;SDS011;9178;51.120;6.192;2024-03-08T07:06:11;26.10;;;15.67;;
18102;SDS011;9178;51.120;6.192;2024-03-08T07:08:42;26.47;;;16.43;;
18102;SDS011;9178;51.120;6.192;2024-03-08T07:11:11;25.03;;;15.80;;
18102;SDS011;9178;51.120;6.192;2024-03-08T07:13:41;27.33;;;15.27;;
18102;SDS011;9178;51.120;6.192;2024-03-08T07:16:08;25.93;;;15.53;;
18102;SDS011;9178;51.120;6.192;2024-03-08T07:18:37;26.17;;;16.00;;
18102;SDS011;9178;51.120;6.192;2024-03-08T07:21:08;23.47;;;15.63;;
18102;SDS011;9178;51.120;6.192;2024-03-08T07:23:37;22.83;;;15.33;;
18102;SDS011;9178;51.120;6.192;2024-03-08T07:26:27;23.57;;;14.60;;
18102;SDS011;9178;51.120;6.192;2024-03-08T07:28:56;22.90;;;15.53;;
18102;SDS011;9178;51.120;6.192;2024-03-08T07:31:25;24.50;;;15.30;;
18102;SDS011;9178;51.120;6.192;2024-03-08T07:34:03;21.53;;;14.67;;
18102;SDS011;9178;51.120;6.192;2024-03-08T07:36:32;18.83;;;14.17;;
18102;SDS011;9178;51.120;6.192;2024-03-08T07:39:02;20.87;;;14.70;;
18102;SDS011;9178;51.120;6.192;2024-03-08T07:41:39;26.10;;;14.77;;
18102;SDS011;9178;51.120;6.192;2024-03-08T07:44:06;25.07;;;15.90;;
18102;SDS011;9178;51.120;6.192;2024-03-08T07:46:35;23.07;;;14.83;;
18102;SDS011;9178;51.120;6.192;2024-03-08T07:49:03;21.87;;;13.67;;
18102;SDS011;9178;51.120;6.192;2024-03-08T07:51:31;21.07;;;14.97;;
18102;SDS011;9178;51.120;6.192;2024-03-08T07:53:59;22.77;;;14.50;;
18102;SDS011;9178;51.120;6.192;2024-03-08T07:56:34;23.37;;;15.33;;
18102;SDS011;9178;51.120;6.192;2024-03-08T07:59:01;21.87;;;14.67;;
18102;SDS011;9178;51.120;6.192;2024-03-08T08:01:30;24.77;;;15.17;;
18102;SDS011;9178;51.120;6.192;2024-03-08T08:03:58;21.17;;;15.23;;
18102;SDS011;9178;51.120;6.192;2024-03-08T08:06:26;20.23;;;14.53;;
18102;SDS011;9178;51.120;6.192;2024-03-08T08:08:57;24.63;;;15.77;;
18102;SDS011;9178;51.120;6.192;2024-03-08T08:11:27;21.97;;;14.43;;
18102;SDS011;9178;51.120;6.192;2024-03-08T08:13:55;20.93;;;15.07;;
18102;SDS011;9178;51.120;6.192;2024-03-08T08:16:22;22.03;;;14.33;;
18102;SDS011;9178;51.120;6.192;2024-03-08T08:18:50;23.27;;;15.00;;
18102;SDS011;9178;51.120;6.192;2024-03-08T08:21:18;21.87;;;14.93;;
18102;SDS011;9178;51.120;6.192;2024-03-08T08:23:50;23.20;;;14.43;;
18102;SDS011;9178;51.120;6.192;2024-03-08T08:26:17;22.97;;;15.23;;
18102;SDS011;9178;51.120;6.192;2024-03-08T08:28:45;22.00;;;15.10;;
18102;SDS011;9178;51.120;6.192;2024-03-08T08:31:14;21.83;;;14.80;;
18102;SDS011;9178;51.120;6.192;2024-03-08T08:33:41;21.90;;;14.73;;
18102;SDS011;9178;51.120;6.192;2024-03-08T08:36:09;21.30;;;14.30;;
18102;SDS011;9178;51.120;6.192;2024-03-08T08:38:37;19.87;;;14.80;;
18102;SDS011;9178;51.120;6.192;2024-03-08T08:41:04;24.53;;;14.73;;
18102;SDS011;9178;51.120;6.192;2024-03-08T08:43:32;19.30;;;14.33;;
18102;SDS011;9178;51.120;6.192;2024-03-08T08:46:01;20.80;;;15.33;;
18102;SDS011;9178;51.120;6.192;2024-03-08T08:48:29;17.93;;;14.47;;
18102;SDS011;9178;51.120;6.192;2024-03-08T08:50:56;22.87;;;14.87;;
18102;SDS011;9178;51.120;6.192;2024-03-08T08:53:24;22.70;;;15.00;;
18102;SDS011;9178;51.120;6.192;2024-03-08T08:55:51;21.07;;;14.50;;
18102;SDS011;9178;51.120;6.192;2024-03-08T08:58:19;20.33;;;13.77;;
18102;SDS011;9178;51.120;6.192;2024-03-08T09:00:47;21.40;;;14.37;;
18102;SDS011;9178;51.120;6.192;2024-03-08T09:03:16;26.03;;;15.50;;
18102;SDS011;9178;51.120;6.192;2024-03-08T09:05:44;19.90;;;14.27;;
18102;SDS011;9178;51.120;6.192;2024-03-08T09:08:11;23.17;;;14.27;;
18102;SDS011;9178;51.120;6.192;2024-03-08T09:10:39;20.83;;;14.43;;
18102;SDS011;9178;51.120;6.192;2024-03-08T09:13:06;18.67;;;14.97;;
18102;SDS011;9178;51.120;6.192;2024-03-08T09:15:35;19.33;;;13.80;;
18102;SDS011;9178;51.120;6.192;2024-03-08T09:18:05;25.23;;;15.17;;
18102;SDS011;9178;51.120;6.192;2024-03-08T09:20:34;21.37;;;14.77;;
18102;SDS011;9178;51.120;6.192;2024-03-08T09:23:02;19.37;;;13.13;;
18102;SDS011;9178;51.120;6.192;2024-03-08T09:25:30;20.30;;;14.07;;
18102;SDS011;9178;51.120;6.192;2024-03-08T09:27:57;20.20;;;14.10;;
18102;SDS011;9178;51.120;6.192;2024-03-08T09:30:25;21.60;;;14.70;;
18102;SDS011;9178;51.120;6.192;2024-03-08T09:32:54;18.67;;;13.80;;
18102;SDS011;9178;51.120;6.192;2024-03-08T09:35:21;18.97;;;14.37;;
18102;SDS011;9178;51.120;6.192;2024-03-08T09:37:50;19.50;;;14.50;;
18102;SDS011;9178;51.120;6.192;2024-03-08T09:40:18;19.53;;;14.57;;
18102;SDS011;9178;51.120;6.192;2024-03-08T09:42:48;20.50;;;13.43;;
18102;SDS011;9178;51.120;6.192;2024-03-08T09:45:17;20.00;;;14.43;;
18102;SDS011;9178;51.120;6.192;2024-03-08T09:47:48;18.53;;;13.47;;
18102;SDS011;9178;51.120;6.192;2024-03-08T09:50:16;17.00;;;13.37;;
18102;SDS011;9178;51.120;6.192;2024-03-08T09:52:43;22.53;;;12.90;;
18102;SDS011;9178;51.120;6.192;2024-03-08T09:55:16;17.40;;;12.80;;
18102;SDS011;9178;51.120;6.192;2024-03-08T09:57:47;16.23;;;12.90;;
18102;SDS011;9178;51.120;6.192;2024-03-08T10:00:28;22.73;;;13.13;;
18102;SDS011;9178;51.120;6.192;2024-03-08T10:03:00;18.17;;;13.60;;
18102;SDS011;9178;51.120;6.192;2024-03-08T10:05:30;18.07;;;13.50;;
18102;SDS011;9178;51.120;6.192;2024-03-08T10:07:59;19.23;;;13.20;;
18102;SDS011;9178;51.120;6.192;2024-03-08T10:10:33;18.50;;;12.10;;
18102;SDS011;9178;51.120;6.192;2024-03-08T10:13:10;16.07;;;12.53;;
18102;SDS011;9178;51.120;6.192;2024-03-08T10:15:39;20.10;;;12.70;;
18102;SDS011;9178;51.120;6.192;2024-03-08T10:18:06;17.60;;;12.83;;
18102;SDS011;9178;51.120;6.192;2024-03-08T10:20:35;19.63;;;12.90;;
18102;SDS011;9178;51.120;6.192;2024-03-08T10:23:03;19.90;;;12.37;;
18102;SDS011;9178;51.120;6.192;2024-03-08T10:25:32;19.00;;;12.47;;
18102;SDS011;9178;51.120;6.192;2024-03-08T10:28:00;16.50;;;11.80;;
18102;SDS011;9178;51.120;6.192;2024-03-08T10:30:30;16.40;;;11.70;;
18102;SDS011;9178;51.120;6.192;2024-03-08T10:32:57;15.57;;;12.27;;
18102;SDS011;9178;51.120;6.192;2024-03-08T10:35:26;15.40;;;12.00;;
18102;SDS011;9178;51.120;6.192;2024-03-08T10:37:53;16.87;;;12.07;;
18102;SDS011;9178;51.120;6.192;2024-03-08T10:40:25;16.57;;;12.10;;
18102;SDS011;9178;51.120;6.192;2024-03-08T10:42:56;16.80;;;12.10;;
18102;SDS011;9178;51.120;6.192;2024-03-08T10:45:30;18.60;;;12.00;;
18102;SDS011;9178;51.120;6.192;2024-03-08T10:48:10;15.70;;;11.60;;
18102;SDS011;9178;51.120;6.192;2024-03-08T10:50:53;16.90;;;11.00;;
18102;SDS011;9178;51.120;6.192;2024-03-08T10:53:22;17.47;;;11.17;;
18102;SDS011;9178;51.120;6.192;2024-03-08T10:55:50;18.73;;;11.07;;
18102;SDS011;9178;51.120;6.192;2024-03-08T10:58:24;13.57;;;10.60;;
18102;SDS011;9178;51.120;6.192;2024-03-08T11:00:53;18.40;;;11.10;;
18102;SDS011;9178;51.120;6.192;2024-03-08T11:06:13;14.50;;;10.63;;
18102;SDS011;9178;51.120;6.192;2024-03-08T11:08:42;16.67;;;11.53;;
18102;SDS011;9178;51.120;6.192;2024-03-08T11:11:23;17.23;;;11.63;;
18102;SDS011;9178;51.120;6.192;2024-03-08T11:14:01;14.67;;;10.83;;
18102;SDS011;9178;51.120;6.192;2024-03-08T11:19:23;13.97;;;10.70;;
18102;SDS011;9178;51.120;6.192;2024-03-08T11:22:02;15.97;;;10.80;;
18102;SDS011;9178;51.120;6.192;2024-03-08T11:24:38;11.65;;;9.95;;
18102;SDS011;9178;51.120;6.192;2024-03-08T11:27:07;12.00;;;10.05;;
18102;SDS011;9178;51.120;6.192;2024-03-08T11:29:37;12.90;;;10.63;;
18102;SDS011;9178;51.120;6.192;2024-03-08T11:32:07;12.50;;;10.23;;
18102;SDS011;9178;51.120;6.192;2024-03-08T11:34:35;18.50;;;11.37;;
18102;SDS011;9178;51.120;6.192;2024-03-08T11:37:03;13.20;;;10.17;;
18102;SDS011;9178;51.120;6.192;2024-03-08T11:39:35;14.50;;;9.60;;
18102;SDS011;9178;51.120;6.192;2024-03-08T11:42:04;14.07;;;9.30;;
18102;SDS011;9178;51.120;6.192;2024-03-08T11:44:31;11.77;;;9.33;;
18102;SDS011;9178;51.120;6.192;2024-03-08T11:47:00;12.67;;;9.17;;
18102;SDS011;9178;51.120;6.192;2024-03-08T11:49:31;10.30;;;9.20;;
18102;SDS011;9178;51.120;6.192;2024-03-08T11:51:59;10.60;;;8.43;;
18102;SDS011;9178;51.120;6.192;2024-03-08T11:54:26;11.07;;;8.70;;
18102;SDS011;9178;51.120;6.192;2024-03-08T11:56:55;17.03;;;8.93;;
18102;SDS011;9178;51.120;6.192;2024-03-08T11:59:26;12.63;;;9.00;;
18102;SDS011;9178;51.120;6.192;2024-03-08T12:01:58;10.07;;;8.18;;
18102;SDS011;9178;51.120;6.192;2024-03-08T12:04:29;10.15;;;9.02;;
18102;SDS011;9178;51.120;6.192;2024-03-08T12:06:59;11.80;;;9.90;;
18102;SDS011;9178;51.120;6.192;2024-03-08T12:09:27;9.88;;;8.65;;
18102;SDS011;9178;51.120;6.192;2024-03-08T12:11:57;12.02;;;8.88;;
18102;SDS011;9178;51.120;6.192;2024-03-08T12:14:25;10.18;;;8.77;;
18102;SDS011;9178;51.120;6.192;2024-03-08T12:16:52;10.20;;;8.85;;
18102;SDS011;9178;51.120;6.192;2024-03-08T12:19:21;14.18;;;9.73;;
18102;SDS011;9178;51.120;6.192;2024-03-08T12:21:48;12.63;;;8.70;;
18102;SDS011;9178;51.120;6.192;2024-03-08T12:24:16;10.57;;;8.70;;
18102;SDS011;9178;51.120;6.192;2024-03-08T12:26:45;12.67;;;8.87;;
18102;SDS011;9178;51.120;6.192;2024-03-08T12:29:17;11.97;;;9.23;;
18102;SDS011;9178;51.120;6.192;2024-03-08T12:31:47;13.93;;;9.13;;
18102;SDS011;9178;51.120;6.192;2024-03-08T12:34:17;13.10;;;8.60;;
18102;SDS011;9178;51.120;6.192;2024-03-08T12:36:46;10.80;;;8.93;;
18102;SDS011;9178;51.120;6.192;2024-03-08T12:39:15;13.07;;;8.60;;
18102;SDS011;9178;51.120;6.192;2024-03-08T12:41:47;11.70;;;8.83;;
18102;SDS011;9178;51.120;6.192;2024-03-08T12:44:16;11.33;;;8.53;;
18102;SDS011;9178;51.120;6.192;2024-03-08T12:46:44;12.87;;;9.23;;
18102;SDS011;9178;51.120;6.192;2024-03-08T12:49:11;12.20;;;8.47;;
18102;SDS011;9178;51.120;6.192;2024-03-08T12:51:42;14.27;;;9.43;;
18102;SDS011;9178;51.120;6.192;2024-03-08T12:54:11;12.10;;;9.67;;
18102;SDS011;9178;51.120;6.192;2024-03-08T12:56:39;11.60;;;8.67;;
18102;SDS011;9178;51.120;6.192;2024-03-08T12:59:09;11.80;;;9.25;;
18102;SDS011;9178;51.120;6.192;2024-03-08T13:01:37;12.40;;;8.68;;
18102;SDS011;9178;51.120;6.192;2024-03-08T13:04:04;13.93;;;9.10;;
18102;SDS011;9178;51.120;6.192;2024-03-08T13:06:36;11.75;;;8.38;;
18102;SDS011;9178;51.120;6.192;2024-03-08T13:09:04;11.68;;;8.93;;
18102;SDS011;9178;51.120;6.192;2024-03-08T13:11:35;10.88;;;8.30;;
18102;SDS011;9178;51.120;6.192;2024-03-08T13:14:03;10.57;;;8.45;;
18102;SDS011;9178;51.120;6.192;2024-03-08T13:16:32;10.52;;;8.98;;
18102;SDS011;9178;51.120;6.192;2024-03-08T13:19:02;11.20;;;8.73;;
18102;SDS011;9178;51.120;6.192;2024-03-08T13:21:29;10.40;;;8.95;;
18102;SDS011;9178;51.120;6.192;2024-03-08T13:23:57;12.25;;;8.68;;
18102;SDS011;9178;51.120;6.192;2024-03-08T13:26:26;13.13;;;9.15;;
18102;SDS011;9178;51.120;6.192;2024-03-08T13:28:59;12.43;;;9.07;;
18102;SDS011;9178;51.120;6.192;2024-03-08T13:31:26;11.93;;;8.60;;
18102;SDS011;9178;51.120;6.192;2024-03-08T13:33:53;11.63;;;9.05;;
18102;SDS011;9178;51.120;6.192;2024-03-08T13:36:23;13.03;;;8.40;;
18102;SDS011;9178;51.120;6.192;2024-03-08T13:38:54;11.13;;;8.93;;
18102;SDS011;9178;51.120;6.192;2024-03-08T13:41:24;11.60;;;8.87;;
18102;SDS011;9178;51.120;6.192;2024-03-08T13:43:51;11.20;;;8.47;;
18102;SDS011;9178;51.120;6.192;2024-03-08T13:46:23;11.37;;;9.13;;
18102;SDS011;9178;51.120;6.192;2024-03-08T13:48:51;10.90;;;9.30;;
18102;SDS011;9178;51.120;6.192;2024-03-08T13:51:20;12.10;;;8.37;;
18102;SDS011;9178;51.120;6.192;2024-03-08T13:53:50;12.47;;;8.63;;
18102;SDS011;9178;51.120;6.192;2024-03-08T13:56:17;13.87;;;9.13;;
18102;SDS011;9178;51.120;6.192;2024-03-08T13:58:45;15.83;;;9.20;;
18102;SDS011;9178;51.120;6.192;2024-03-08T14:01:12;14.17;;;8.90;;
18102;SDS011;9178;51.120;6.192;2024-03-08T14:03:41;13.60;;;8.53;;
18102;SDS011;9178;51.120;6.192;2024-03-08T14:06:08;11.87;;;8.03;;
18102;SDS011;9178;51.120;6.192;2024-03-08T14:08:36;12.97;;;8.43;;
18102;SDS011;9178;51.120;6.192;2024-03-08T14:11:03;14.10;;;8.50;;
18102;SDS011;9178;51.120;6.192;2024-03-08T14:13:36;12.33;;;8.63;;
18102;SDS011;9178;51.120;6.192;2024-03-08T14:16:10;11.60;;;8.33;;
18102;SDS011;9178;51.120;6.192;2024-03-08T14:18:38;11.25;;;7.88;;
18102;SDS011;9178;51.120;6.192;2024-03-08T14:21:06;11.00;;;7.75;;
18102;SDS011;9178;51.120;6.192;2024-03-08T14:23:35;9.25;;;7.65;;
18102;SDS011;9178;51.120;6.192;2024-03-08T14:26:03;9.20;;;7.90;;
18102;SDS011;9178;51.120;6.192;2024-03-08T14:28:32;12.07;;;7.95;;
18102;SDS011;9178;51.120;6.192;2024-03-08T14:30:59;8.65;;;7.57;;
18102;SDS011;9178;51.120;6.192;2024-03-08T14:33:28;11.80;;;7.22;;
18102;SDS011;9178;51.120;6.192;2024-03-08T14:35:56;12.10;;;7.75;;
18102;SDS011;9178;51.120;6.192;2024-03-08T14:38:25;10.82;;;7.72;;
18102;SDS011;9178;51.120;6.192;2024-03-08T14:40:53;12.10;;;7.80;;
18102;SDS011;9178;51.120;6.192;2024-03-08T14:43:21;8.68;;;7.32;;
18102;SDS011;9178;51.120;6.192;2024-03-08T14:45:48;11.68;;;8.55;;
18102;SDS011;9178;51.120;6.192;2024-03-08T14:48:15;9.77;;;7.82;;
18102;SDS011;9178;51.120;6.192;2024-03-08T14:50:43;10.05;;;7.35;;
18102;SDS011;9178;51.120;6.192;2024-03-08T14:53:12;12.77;;;7.65;;
18102;SDS011;9178;51.120;6.192;2024-03-08T14:55:42;11.32;;;7.93;;